sensor_id;sensor_type;location;lat;lon;timestamp;P1;durP1;ratioP1;P2;durP2;ratioP2
61085;SDS011;46967;48.876;2.136;2023-03-03T00:02:01;37.08;;;19.00;;
61085;SDS011;46967;48.876;2.136;2023-03-03T00:04:26;32.08;;;17.80;;
61085;SDS011;46967;48.876;2.136;2023-03-03T00:06:51;31.92;;;18.05;;
61085;SDS011;46967;48.876;2.136;2023-03-03T00:09:17;30.30;;;17.55;;
61085;SDS011;46967;48.876;2.136;2023-03-03T00:11:42;30.67;;;18.20;;
61085;SDS011;46967;48.876;2.136;2023-03-03T00:14:19;32.92;;;18.55;;
61085;SDS011;46967;48.876;2.136;2023-03-03T00:16:50;31.83;;;17.40;;
61085;SDS011;46967;48.876;2.136;2023-03-03T00:19:19;34.67;;;19.23;;
61085;SDS011;46967;48.876;2.136;2023-03-03T00:21:45;34.85;;;18.08;;
61085;SDS011;46967;48.876;2.136;2023-03-03T00:26:47;33.13;;;17.98;;
61085;SDS011;46967;48.876;2.136;2023-03-03T00:32:11;35.45;;;17.67;;
61085;SDS011;46967;48.876;2.136;2023-03-03T00:34:45;33.95;;;18.75;;
61085;SDS011;46967;48.876;2.136;2023-03-03T00:37:27;30.35;;;17.60;;
61085;SDS011;46967;48.876;2.136;2023-03-03T00:39:55;32.78;;;18.20;;
61085;SDS011;46967;48.876;2.136;2023-03-03T00:42:25;33.90;;;18.30;;
61085;SDS011;46967;48.876;2.136;2023-03-03T00:44:58;32.78;;;17.70;;
61085;SDS011;46967;48.876;2.136;2023-03-03T00:52:38;34.33;;;17.92;;
61085;SDS011;46967;48.876;2.136;2023-03-03T00:55:07;31.63;;;17.50;;
61085;SDS011;46967;48.876;2.136;2023-03-03T00:57:32;31.27;;;17.83;;
61085;SDS011;46967;48.876;2.136;2023-03-03T00:59:58;36.83;;;18.60;;
61085;SDS011;46967;48.876;2.136;2023-03-03T01:02:23;29.80;;;17.27;;
61085;SDS011;46967;48.876;2.136;2023-03-03T01:04:50;34.05;;;18.73;;
61085;SDS011;46967;48.876;2.136;2023-03-03T01:07:17;31.10;;;16.83;;
61085;SDS011;46967;48.876;2.136;2023-03-03T01:09:43;32.50;;;18.73;;
61085;SDS011;46967;48.876;2.136;2023-03-03T01:12:09;38.00;;;18.67;;
61085;SDS011;46967;48.876;2.136;2023-03-03T01:14:35;39.33;;;18.77;;
61085;SDS011;46967;48.876;2.136;2023-03-03T01:17:01;33.58;;;17.50;;
61085;SDS011;46967;48.876;2.136;2023-03-03T01:19:26;36.45;;;18.48;;
61085;SDS011;46967;48.876;2.136;2023-03-03T01:21:52;35.40;;;17.92;;
61085;SDS011;46967;48.876;2.136;2023-03-03T01:24:17;35.17;;;19.00;;
61085;SDS011;46967;48.876;2.136;2023-03-03T01:26:43;31.77;;;18.58;;
61085;SDS011;46967;48.876;2.136;2023-03-03T01:29:08;34.97;;;18.85;;
61085;SDS011;46967;48.876;2.136;2023-03-03T01:31:33;37.40;;;18.98;;
61085;SDS011;46967;48.876;2.136;2023-03-03T01:33:59;36.03;;;19.15;;
61085;SDS011;46967;48.876;2.136;2023-03-03T01:36:25;34.88;;;18.60;;
61085;SDS011;46967;48.876;2.136;2023-03-03T01:38:51;35.60;;;19.15;;
61085;SDS011;46967;48.876;2.136;2023-03-03T01:41:17;33.35;;;19.42;;
61085;SDS011;46967;48.876;2.136;2023-03-03T01:43:43;31.98;;;18.08;;
61085;SDS011;46967;48.876;2.136;2023-03-03T01:48:59;36.40;;;18.77;;
61085;SDS011;46967;48.876;2.136;2023-03-03T01:51:30;29.77;;;17.25;;
61085;SDS011;46967;48.876;2.136;2023-03-03T01:54:02;34.38;;;17.25;;
61085;SDS011;46967;48.876;2.136;2023-03-03T01:56:41;40.40;;;20.45;;
61085;SDS011;46967;48.876;2.136;2023-03-03T01:59:18;34.95;;;19.92;;
61085;SDS011;46967;48.876;2.136;2023-03-03T02:01:47;33.53;;;18.42;;
61085;SDS011;46967;48.876;2.136;2023-03-03T02:04:14;35.42;;;18.75;;
61085;SDS011;46967;48.876;2.136;2023-03-03T02:06:40;34.42;;;17.98;;
61085;SDS011;46967;48.876;2.136;2023-03-03T02:09:11;32.80;;;18.20;;
61085;SDS011;46967;48.876;2.136;2023-03-03T02:11:40;32.28;;;18.30;;
61085;SDS011;46967;48.876;2.136;2023-03-03T02:14:09;35.00;;;18.67;;
61085;SDS011;46967;48.876;2.136;2023-03-03T02:16:36;35.85;;;18.80;;
61085;SDS011;46967;48.876;2.136;2023-03-03T02:19:02;35.35;;;17.52;;
61085;SDS011;46967;48.876;2.136;2023-03-03T02:21:33;30.15;;;17.33;;
61085;SDS011;46967;48.876;2.136;2023-03-03T02:29:13;28.25;;;15.98;;
61085;SDS011;46967;48.876;2.136;2023-03-03T02:31:39;30.70;;;16.95;;
61085;SDS011;46967;48.876;2.136;2023-03-03T02:34:04;36.88;;;17.85;;
61085;SDS011;46967;48.876;2.136;2023-03-03T02:36:31;31.40;;;17.65;;
61085;SDS011;46967;48.876;2.136;2023-03-03T02:41:45;34.85;;;17.52;;
61085;SDS011;46967;48.876;2.136;2023-03-03T02:44:17;35.42;;;18.08;;
61085;SDS011;46967;48.876;2.136;2023-03-03T02:46:46;29.85;;;17.70;;
61085;SDS011;46967;48.876;2.136;2023-03-03T02:49:14;30.10;;;17.02;;
61085;SDS011;46967;48.876;2.136;2023-03-03T02:51:41;36.15;;;17.75;;
61085;SDS011;46967;48.876;2.136;2023-03-03T02:54:08;34.05;;;17.92;;
61085;SDS011;46967;48.876;2.136;2023-03-03T02:56:35;33.95;;;18.38;;
61085;SDS011;46967;48.876;2.136;2023-03-03T02:59:01;34.35;;;17.67;;
61085;SDS011;46967;48.876;2.136;2023-03-03T03:01:27;29.23;;;16.15;;
61085;SDS011;46967;48.876;2.136;2023-03-03T03:03:55;29.42;;;16.20;;
61085;SDS011;46967;48.876;2.136;2023-03-03T03:06:21;30.20;;;17.70;;
61085;SDS011;46967;48.876;2.136;2023-03-03T03:08:46;31.95;;;16.75;;
61085;SDS011;46967;48.876;2.136;2023-03-03T03:11:12;35.90;;;16.85;;
61085;SDS011;46967;48.876;2.136;2023-03-03T03:13:37;30.40;;;16.52;;
61085;SDS011;46967;48.876;2.136;2023-03-03T03:16:02;33.58;;;17.50;;
61085;SDS011;46967;48.876;2.136;2023-03-03T03:18:28;30.15;;;16.73;;
61085;SDS011;46967;48.876;2.136;2023-03-03T03:20:54;30.08;;;18.70;;
61085;SDS011;46967;48.876;2.136;2023-03-03T03:23:19;31.92;;;17.50;;
61085;SDS011;46967;48.876;2.136;2023-03-03T03:25:47;33.92;;;17.35;;
61085;SDS011;46967;48.876;2.136;2023-03-03T03:28:13;34.30;;;16.60;;
61085;SDS011;46967;48.876;2.136;2023-03-03T03:30:41;30.65;;;17.50;;
61085;SDS011;46967;48.876;2.136;2023-03-03T03:33:08;31.38;;;16.15;;
61085;SDS011;46967;48.876;2.136;2023-03-03T03:35:34;35.40;;;18.48;;
61085;SDS011;46967;48.876;2.136;2023-03-03T03:38:00;34.13;;;18.02;;
61085;SDS011;46967;48.876;2.136;2023-03-03T03:40:27;32.70;;;16.38;;
61085;SDS011;46967;48.876;2.136;2023-03-03T03:42:52;31.58;;;17.15;;
61085;SDS011;46967;48.876;2.136;2023-03-03T03:45:19;33.80;;;17.50;;
61085;SDS011;46967;48.876;2.136;2023-03-03T03:47:44;32.78;;;17.85;;
61085;SDS011;46967;48.876;2.136;2023-03-03T03:50:09;34.15;;;16.65;;
61085;SDS011;46967;48.876;2.136;2023-03-03T03:52:35;30.83;;;16.83;;
61085;SDS011;46967;48.876;2.136;2023-03-03T03:55:01;31.98;;;17.25;;
61085;SDS011;46967;48.876;2.136;2023-03-03T03:57:27;29.90;;;16.10;;
61085;SDS011;46967;48.876;2.136;2023-03-03T03:59:52;38.03;;;18.38;;
61085;SDS011;46967;48.876;2.136;2023-03-03T04:02:18;34.90;;;17.85;;
61085;SDS011;46967;48.876;2.136;2023-03-03T04:04:43;31.67;;;17.10;;
61085;SDS011;46967;48.876;2.136;2023-03-03T04:07:08;30.92;;;17.52;;
61085;SDS011;46967;48.876;2.136;2023-03-03T04:09:34;31.25;;;17.13;;
61085;SDS011;46967;48.876;2.136;2023-03-03T04:11:59;30.35;;;16.88;;
61085;SDS011;46967;48.876;2.136;2023-03-03T04:14:24;29.02;;;16.10;;
61085;SDS011;46967;48.876;2.136;2023-03-03T04:16:50;32.60;;;16.23;;
61085;SDS011;46967;48.876;2.136;2023-03-03T04:19:15;35.08;;;17.83;;
61085;SDS011;46967;48.876;2.136;2023-03-03T04:21:41;30.85;;;17.95;;
61085;SDS011;46967;48.876;2.136;2023-03-03T04:24:06;35.60;;;17.05;;
61085;SDS011;46967;48.876;2.136;2023-03-03T04:26:31;30.38;;;16.58;;
61085;SDS011;46967;48.876;2.136;2023-03-03T04:28:57;33.38;;;18.02;;
61085;SDS011;46967;48.876;2.136;2023-03-03T04:31:23;30.08;;;16.98;;
61085;SDS011;46967;48.876;2.136;2023-03-03T04:33:49;31.75;;;17.45;;
61085;SDS011;46967;48.876;2.136;2023-03-03T04:36:15;33.00;;;17.40;;
61085;SDS011;46967;48.876;2.136;2023-03-03T04:38:40;35.10;;;17.33;;
61085;SDS011;46967;48.876;2.136;2023-03-03T04:41:06;39.92;;;18.98;;
61085;SDS011;46967;48.876;2.136;2023-03-03T04:43:31;31.27;;;16.90;;
61085;SDS011;46967;48.876;2.136;2023-03-03T04:45:56;34.20;;;16.40;;
61085;SDS011;46967;48.876;2.136;2023-03-03T04:48:22;32.92;;;17.60;;
61085;SDS011;46967;48.876;2.136;2023-03-03T04:50:47;34.08;;;17.58;;
61085;SDS011;46967;48.876;2.136;2023-03-03T04:53:12;32.53;;;17.35;;
61085;SDS011;46967;48.876;2.136;2023-03-03T04:55:38;35.38;;;17.67;;
61085;SDS011;46967;48.876;2.136;2023-03-03T04:58:03;33.08;;;17.33;;
61085;SDS011;46967;48.876;2.136;2023-03-03T05:00:29;31.50;;;16.50;;
61085;SDS011;46967;48.876;2.136;2023-03-03T05:02:55;32.30;;;17.50;;
61085;SDS011;46967;48.876;2.136;2023-03-03T05:05:20;32.45;;;17.88;;
61085;SDS011;46967;48.876;2.136;2023-03-03T05:07:46;34.50;;;18.60;;
61085;SDS011;46967;48.876;2.136;2023-03-03T05:10:11;36.67;;;19.13;;
61085;SDS011;46967;48.876;2.136;2023-03-03T05:12:36;35.10;;;19.15;;
61085;SDS011;46967;48.876;2.136;2023-03-03T05:15:02;31.67;;;17.40;;
61085;SDS011;46967;48.876;2.136;2023-03-03T05:17:28;36.92;;;19.38;;
61085;SDS011;46967;48.876;2.136;2023-03-03T05:19:53;36.15;;;17.30;;
61085;SDS011;46967;48.876;2.136;2023-03-03T05:22:21;31.88;;;18.80;;
61085;SDS011;46967;48.876;2.136;2023-03-03T05:24:46;33.38;;;19.10;;
61085;SDS011;46967;48.876;2.136;2023-03-03T05:27:13;39.78;;;19.52;;
61085;SDS011;46967;48.876;2.136;2023-03-03T05:29:39;37.30;;;18.63;;
61085;SDS011;46967;48.876;2.136;2023-03-03T05:32:04;35.20;;;18.38;;
61085;SDS011;46967;48.876;2.136;2023-03-03T05:34:29;30.70;;;17.40;;
61085;SDS011;46967;48.876;2.136;2023-03-03T05:36:55;35.78;;;18.80;;
61085;SDS011;46967;48.876;2.136;2023-03-03T05:39:20;32.63;;;17.85;;
61085;SDS011;46967;48.876;2.136;2023-03-03T05:41:45;36.17;;;19.20;;
61085;SDS011;46967;48.876;2.136;2023-03-03T05:44:11;33.75;;;17.63;;
61085;SDS011;46967;48.876;2.136;2023-03-03T05:46:36;29.90;;;17.92;;
61085;SDS011;46967;48.876;2.136;2023-03-03T05:49:02;39.10;;;20.33;;
61085;SDS011;46967;48.876;2.136;2023-03-03T05:51:27;37.83;;;20.52;;
61085;SDS011;46967;48.876;2.136;2023-03-03T05:53:53;37.55;;;19.55;;
61085;SDS011;46967;48.876;2.136;2023-03-03T05:56:18;41.30;;;20.65;;
61085;SDS011;46967;48.876;2.136;2023-03-03T05:58:44;38.60;;;20.90;;
61085;SDS011;46967;48.876;2.136;2023-03-03T06:01:09;42.70;;;19.92;;
61085;SDS011;46967;48.876;2.136;2023-03-03T06:03:35;41.40;;;21.67;;
61085;SDS011;46967;48.876;2.136;2023-03-03T06:06:00;33.33;;;20.15;;
61085;SDS011;46967;48.876;2.136;2023-03-03T06:08:25;38.50;;;19.67;;
61085;SDS011;46967;48.876;2.136;2023-03-03T06:10:51;37.65;;;19.92;;
61085;SDS011;46967;48.876;2.136;2023-03-03T06:13:16;38.67;;;19.55;;
61085;SDS011;46967;48.876;2.136;2023-03-03T06:15:42;36.63;;;20.92;;
61085;SDS011;46967;48.876;2.136;2023-03-03T06:18:07;36.70;;;19.58;;
61085;SDS011;46967;48.876;2.136;2023-03-03T06:20:33;38.25;;;20.60;;
61085;SDS011;46967;48.876;2.136;2023-03-03T06:22:59;37.38;;;20.40;;
61085;SDS011;46967;48.876;2.136;2023-03-03T06:25:24;43.67;;;20.90;;
61085;SDS011;46967;48.876;2.136;2023-03-03T06:27:50;41.00;;;23.02;;
61085;SDS011;46967;48.876;2.136;2023-03-03T06:30:15;43.00;;;20.55;;
61085;SDS011;46967;48.876;2.136;2023-03-03T06:32:41;41.72;;;22.45;;
61085;SDS011;46967;48.876;2.136;2023-03-03T06:35:06;45.60;;;21.92;;
61085;SDS011;46967;48.876;2.136;2023-03-03T06:37:32;35.92;;;20.38;;
61085;SDS011;46967;48.876;2.136;2023-03-03T06:39:57;40.90;;;22.85;;
61085;SDS011;46967;48.876;2.136;2023-03-03T06:42:23;44.45;;;23.23;;
61085;SDS011;46967;48.876;2.136;2023-03-03T06:44:48;40.28;;;22.70;;
61085;SDS011;46967;48.876;2.136;2023-03-03T06:47:14;48.25;;;23.75;;
61085;SDS011;46967;48.876;2.136;2023-03-03T06:49:39;44.97;;;23.55;;
61085;SDS011;46967;48.876;2.136;2023-03-03T06:52:10;45.92;;;23.25;;
61085;SDS011;46967;48.876;2.136;2023-03-03T06:54:38;42.78;;;22.15;;
61085;SDS011;46967;48.876;2.136;2023-03-03T06:57:26;44.75;;;23.90;;
61085;SDS011;46967;48.876;2.136;2023-03-03T06:59:51;44.83;;;23.75;;
61085;SDS011;46967;48.876;2.136;2023-03-03T07:02:19;45.15;;;24.45;;
61085;SDS011;46967;48.876;2.136;2023-03-03T07:04:45;41.85;;;23.10;;
61085;SDS011;46967;48.876;2.136;2023-03-03T07:07:15;45.40;;;23.98;;
61085;SDS011;46967;48.876;2.136;2023-03-03T07:09:42;48.40;;;25.23;;
61085;SDS011;46967;48.876;2.136;2023-03-03T07:12:10;50.40;;;25.58;;
61085;SDS011;46967;48.876;2.136;2023-03-03T07:14:43;45.75;;;25.00;;
61085;SDS011;46967;48.876;2.136;2023-03-03T07:17:20;41.85;;;23.58;;
61085;SDS011;46967;48.876;2.136;2023-03-03T07:19:47;46.55;;;25.13;;
61085;SDS011;46967;48.876;2.136;2023-03-03T07:22:15;43.78;;;23.73;;
61085;SDS011;46967;48.876;2.136;2023-03-03T07:24:43;45.28;;;24.90;;
61085;SDS011;46967;48.876;2.136;2023-03-03T07:27:16;41.60;;;24.92;;
61085;SDS011;46967;48.876;2.136;2023-03-03T07:29:48;48.33;;;25.80;;
61085;SDS011;46967;48.876;2.136;2023-03-03T07:37:44;46.80;;;24.55;;
61085;SDS011;46967;48.876;2.136;2023-03-03T07:40:34;45.08;;;24.17;;
61085;SDS011;46967;48.876;2.136;2023-03-03T07:42:58;45.22;;;24.70;;
61085;SDS011;46967;48.876;2.136;2023-03-03T07:45:28;46.63;;;24.33;;
61085;SDS011;46967;48.876;2.136;2023-03-03T07:50:50;40.80;;;23.95;;
61085;SDS011;46967;48.876;2.136;2023-03-03T07:53:20;49.47;;;27.40;;
61085;SDS011;46967;48.876;2.136;2023-03-03T07:55:50;47.85;;;26.30;;
61085;SDS011;46967;48.876;2.136;2023-03-03T07:58:19;49.65;;;26.70;;
61085;SDS011;46967;48.876;2.136;2023-03-03T08:04:15;45.58;;;25.10;;
61085;SDS011;46967;48.876;2.136;2023-03-03T08:06:43;47.03;;;25.63;;
61085;SDS011;46967;48.876;2.136;2023-03-03T08:11:38;44.97;;;25.63;;
61085;SDS011;46967;48.876;2.136;2023-03-03T08:14:11;49.25;;;26.38;;
61085;SDS011;46967;48.876;2.136;2023-03-03T08:16:40;48.00;;;27.35;;
61085;SDS011;46967;48.876;2.136;2023-03-03T08:19:05;46.13;;;25.25;;
61085;SDS011;46967;48.876;2.136;2023-03-03T08:21:31;43.50;;;24.77;;
61085;SDS011;46967;48.876;2.136;2023-03-03T08:23:59;44.92;;;25.67;;
61085;SDS011;46967;48.876;2.136;2023-03-03T08:26:24;50.50;;;26.23;;
61085;SDS011;46967;48.876;2.136;2023-03-03T08:28:51;48.08;;;26.83;;
61085;SDS011;46967;48.876;2.136;2023-03-03T08:31:17;45.75;;;27.30;;
61085;SDS011;46967;48.876;2.136;2023-03-03T08:33:43;50.65;;;27.40;;
61085;SDS011;46967;48.876;2.136;2023-03-03T08:36:09;49.90;;;26.98;;
61085;SDS011;46967;48.876;2.136;2023-03-03T08:38:34;49.28;;;28.20;;
61085;SDS011;46967;48.876;2.136;2023-03-03T08:41:00;50.17;;;27.77;;
61085;SDS011;46967;48.876;2.136;2023-03-03T08:43:26;50.50;;;27.55;;
61085;SDS011;46967;48.876;2.136;2023-03-03T08:45:53;52.00;;;27.27;;
61085;SDS011;46967;48.876;2.136;2023-03-03T08:48:22;46.47;;;26.50;;
61085;SDS011;46967;48.876;2.136;2023-03-03T08:50:47;46.00;;;26.20;;
61085;SDS011;46967;48.876;2.136;2023-03-03T08:53:13;50.33;;;27.15;;
61085;SDS011;46967;48.876;2.136;2023-03-03T08:55:39;49.20;;;27.08;;
61085;SDS011;46967;48.876;2.136;2023-03-03T08:58:05;49.15;;;27.08;;
61085;SDS011;46967;48.876;2.136;2023-03-03T09:00:30;46.92;;;27.05;;
61085;SDS011;46967;48.876;2.136;2023-03-03T09:02:56;50.30;;;28.23;;
61085;SDS011;46967;48.876;2.136;2023-03-03T09:05:22;47.97;;;27.10;;
61085;SDS011;46967;48.876;2.136;2023-03-03T09:07:48;55.13;;;28.08;;
61085;SDS011;46967;48.876;2.136;2023-03-03T09:10:22;54.00;;;27.70;;
61085;SDS011;46967;48.876;2.136;2023-03-03T09:12:55;51.50;;;26.75;;
61085;SDS011;46967;48.876;2.136;2023-03-03T09:15:34;50.70;;;27.55;;
61085;SDS011;46967;48.876;2.136;2023-03-03T09:20:34;47.90;;;26.55;;
61085;SDS011;46967;48.876;2.136;2023-03-03T09:25:46;44.20;;;23.90;;
61085;SDS011;46967;48.876;2.136;2023-03-03T09:28:22;42.63;;;24.63;;
61085;SDS011;46967;48.876;2.136;2023-03-03T09:30:58;42.72;;;24.17;;
61085;SDS011;46967;48.876;2.136;2023-03-03T09:38:51;43.90;;;23.45;;
61085;SDS011;46967;48.876;2.136;2023-03-03T10:14:29;40.53;;;21.80;;
61085;SDS011;46967;48.876;2.136;2023-03-03T10:19:40;38.58;;;21.67;;
61085;SDS011;46967;48.876;2.136;2023-03-03T10:22:25;37.90;;;20.80;;
61085;SDS011;46967;48.876;2.136;2023-03-03T10:35:27;39.85;;;21.23;;
61085;SDS011;46967;48.876;2.136;2023-03-03T10:43:24;36.70;;;20.35;;
61085;SDS011;46967;48.876;2.136;2023-03-03T11:07:34;31.30;;;18.80;;
61085;SDS011;46967;48.876;2.136;2023-03-03T11:25:09;34.65;;;18.13;;
61085;SDS011;46967;48.876;2.136;2023-03-03T11:33:08;30.83;;;17.67;;
61085;SDS011;46967;48.876;2.136;2023-03-03T11:35:39;30.13;;;16.98;;
61085;SDS011;46967;48.876;2.136;2023-03-03T11:41:02;28.48;;;15.77;;
61085;SDS011;46967;48.876;2.136;2023-03-03T11:46:19;31.08;;;17.25;;
61085;SDS011;46967;48.876;2.136;2023-03-03T11:51:35;29.75;;;16.40;;
61085;SDS011;46967;48.876;2.136;2023-03-03T11:56:46;28.75;;;15.98;;
61085;SDS011;46967;48.876;2.136;2023-03-03T12:04:43;31.45;;;15.65;;
61085;SDS011;46967;48.876;2.136;2023-03-03T12:12:40;28.30;;;14.68;;
61085;SDS011;46967;48.876;2.136;2023-03-03T12:24:04;21.35;;;12.85;;
61085;SDS011;46967;48.876;2.136;2023-03-03T12:29:29;22.52;;;12.95;;
61085;SDS011;46967;48.876;2.136;2023-03-03T12:32:03;21.70;;;12.45;;
61085;SDS011;46967;48.876;2.136;2023-03-03T12:34:52;20.85;;;12.82;;
61085;SDS011;46967;48.876;2.136;2023-03-03T12:40:45;19.10;;;11.25;;
61085;SDS011;46967;48.876;2.136;2023-03-03T12:48:49;19.88;;;10.45;;
61085;SDS011;46967;48.876;2.136;2023-03-03T12:51:17;19.88;;;11.43;;
61085;SDS011;46967;48.876;2.136;2023-03-03T12:56:28;17.38;;;10.10;;
61085;SDS011;46967;48.876;2.136;2023-03-03T12:59:09;18.42;;;10.57;;
61085;SDS011;46967;48.876;2.136;2023-03-03T13:07:18;17.70;;;10.20;;
61085;SDS011;46967;48.876;2.136;2023-03-03T13:13:07;16.77;;;9.88;;
61085;SDS011;46967;48.876;2.136;2023-03-03T13:16:03;17.85;;;10.00;;
61085;SDS011;46967;48.876;2.136;2023-03-03T13:21:19;17.48;;;10.32;;
61085;SDS011;46967;48.876;2.136;2023-03-03T13:26:42;19.75;;;10.15;;
61085;SDS011;46967;48.876;2.136;2023-03-03T13:29:18;17.38;;;10.15;;
61085;SDS011;46967;48.876;2.136;2023-03-03T13:31:48;14.85;;;9.27;;
61085;SDS011;46967;48.876;2.136;2023-03-03T13:37:26;17.38;;;9.98;;
61085;SDS011;46967;48.876;2.136;2023-03-03T13:40:04;14.30;;;9.07;;
61085;SDS011;46967;48.876;2.136;2023-03-03T13:42:52;15.07;;;9.15;;
61085;SDS011;46967;48.876;2.136;2023-03-03T13:48:07;14.85;;;9.30;;
61085;SDS011;46967;48.876;2.136;2023-03-03T13:50:56;18.15;;;9.43;;
61085;SDS011;46967;48.876;2.136;2023-03-03T13:56:27;15.50;;;10.05;;
61085;SDS011;46967;48.876;2.136;2023-03-03T13:59:02;17.23;;;9.50;;
61085;SDS011;46967;48.876;2.136;2023-03-03T14:07:29;20.30;;;10.48;;
61085;SDS011;46967;48.876;2.136;2023-03-03T14:18:14;15.38;;;9.57;;
61085;SDS011;46967;48.876;2.136;2023-03-03T14:20:31;16.63;;;9.73;;
61085;SDS011;46967;48.876;2.136;2023-03-03T14:23:02;18.60;;;9.32;;
61085;SDS011;46967;48.876;2.136;2023-03-03T14:26:18;15.63;;;10.10;;
61085;SDS011;46967;48.876;2.136;2023-03-03T14:28:28;16.25;;;9.18;;
61085;SDS011;46967;48.876;2.136;2023-03-03T14:31:09;14.15;;;8.90;;
61085;SDS011;46967;48.876;2.136;2023-03-03T14:33:46;14.35;;;8.80;;
61085;SDS011;46967;48.876;2.136;2023-03-03T14:36:56;15.77;;;9.13;;
61085;SDS011;46967;48.876;2.136;2023-03-03T14:39:35;14.73;;;8.32;;
61085;SDS011;46967;48.876;2.136;2023-03-03T14:42:08;15.98;;;9.18;;
61085;SDS011;46967;48.876;2.136;2023-03-03T14:49:35;12.25;;;8.73;;
61085;SDS011;46967;48.876;2.136;2023-03-03T14:54:46;16.50;;;9.23;;
61085;SDS011;46967;48.876;2.136;2023-03-03T14:57:14;16.33;;;9.93;;
61085;SDS011;46967;48.876;2.136;2023-03-03T15:02:39;14.82;;;9.05;;
61085;SDS011;46967;48.876;2.136;2023-03-03T15:10:33;12.80;;;8.25;;
61085;SDS011;46967;48.876;2.136;2023-03-03T15:13:12;15.18;;;9.00;;
61085;SDS011;46967;48.876;2.136;2023-03-03T15:18:23;12.55;;;8.48;;
61085;SDS011;46967;48.876;2.136;2023-03-03T15:21:08;13.00;;;8.98;;
61085;SDS011;46967;48.876;2.136;2023-03-03T15:31:47;13.60;;;8.63;;
61085;SDS011;46967;48.876;2.136;2023-03-03T15:50:33;15.52;;;8.77;;
61085;SDS011;46967;48.876;2.136;2023-03-03T16:04:03;15.45;;;9.40;;
61085;SDS011;46967;48.876;2.136;2023-03-03T16:17:26;16.52;;;10.25;;
61085;SDS011;46967;48.876;2.136;2023-03-03T16:19:52;14.13;;;9.93;;
61085;SDS011;46967;48.876;2.136;2023-03-03T16:27:45;16.88;;;10.98;;
61085;SDS011;46967;48.876;2.136;2023-03-03T16:30:38;16.35;;;10.60;;
61085;SDS011;46967;48.876;2.136;2023-03-03T16:38:43;17.55;;;10.85;;
61085;SDS011;46967;48.876;2.136;2023-03-03T16:41:20;17.08;;;10.90;;
61085;SDS011;46967;48.876;2.136;2023-03-03T16:46:42;23.27;;;12.50;;
61085;SDS011;46967;48.876;2.136;2023-03-03T16:49:20;16.90;;;11.68;;
61085;SDS011;46967;48.876;2.136;2023-03-03T16:52:11;21.48;;;13.27;;
61085;SDS011;46967;48.876;2.136;2023-03-03T16:54:46;19.42;;;12.27;;
61085;SDS011;46967;48.876;2.136;2023-03-03T17:00:12;20.00;;;11.73;;
61085;SDS011;46967;48.876;2.136;2023-03-03T17:24:46;24.83;;;12.20;;
61085;SDS011;46967;48.876;2.136;2023-03-03T17:30:05;25.92;;;13.18;;
61085;SDS011;46967;48.876;2.136;2023-03-03T17:35:32;24.80;;;13.43;;
61085;SDS011;46967;48.876;2.136;2023-03-03T17:41:00;24.30;;;12.98;;
61085;SDS011;46967;48.876;2.136;2023-03-03T17:45:53;21.73;;;12.37;;
61085;SDS011;46967;48.876;2.136;2023-03-03T18:00:02;21.75;;;11.95;;
61085;SDS011;46967;48.876;2.136;2023-03-03T18:05:43;23.58;;;12.07;;
61085;SDS011;46967;48.876;2.136;2023-03-03T18:08:26;26.77;;;12.63;;
61085;SDS011;46967;48.876;2.136;2023-03-03T18:16:46;24.88;;;13.38;;
61085;SDS011;46967;48.876;2.136;2023-03-03T18:25:13;21.73;;;12.90;;
61085;SDS011;46967;48.876;2.136;2023-03-03T18:30:24;25.42;;;14.35;;
61085;SDS011;46967;48.876;2.136;2023-03-03T18:41:03;31.23;;;16.75;;
61085;SDS011;46967;48.876;2.136;2023-03-03T18:46:10;32.42;;;17.38;;
61085;SDS011;46967;48.876;2.136;2023-03-03T18:49:02;27.80;;;16.27;;
61085;SDS011;46967;48.876;2.136;2023-03-03T18:59:08;27.88;;;15.80;;
61085;SDS011;46967;48.876;2.136;2023-03-03T19:01:37;36.53;;;18.25;;
61085;SDS011;46967;48.876;2.136;2023-03-03T19:09:03;28.90;;;17.13;;
61085;SDS011;46967;48.876;2.136;2023-03-03T19:11:38;29.45;;;17.13;;
61085;SDS011;46967;48.876;2.136;2023-03-03T19:16:50;30.00;;;17.05;;
61085;SDS011;46967;48.876;2.136;2023-03-03T19:19:37;27.80;;;15.95;;
61085;SDS011;46967;48.876;2.136;2023-03-03T19:22:26;26.45;;;15.93;;
61085;SDS011;46967;48.876;2.136;2023-03-03T19:25:29;32.85;;;17.10;;
61085;SDS011;46967;48.876;2.136;2023-03-03T19:27:55;29.73;;;16.38;;
61085;SDS011;46967;48.876;2.136;2023-03-03T19:48:44;35.28;;;19.55;;
61085;SDS011;46967;48.876;2.136;2023-03-03T19:53:56;41.65;;;21.98;;
61085;SDS011;46967;48.876;2.136;2023-03-03T19:56:27;39.63;;;21.30;;
61085;SDS011;46967;48.876;2.136;2023-03-03T19:59:05;36.78;;;19.75;;
61085;SDS011;46967;48.876;2.136;2023-03-03T20:06:55;35.72;;;21.70;;
61085;SDS011;46967;48.876;2.136;2023-03-03T20:09:46;39.88;;;22.52;;
61085;SDS011;46967;48.876;2.136;2023-03-03T20:12:19;40.90;;;22.50;;
61085;SDS011;46967;48.876;2.136;2023-03-03T20:14:54;38.17;;;22.33;;
61085;SDS011;46967;48.876;2.136;2023-03-03T20:25:26;39.20;;;20.35;;
61085;SDS011;46967;48.876;2.136;2023-03-03T20:28:05;38.78;;;22.38;;
61085;SDS011;46967;48.876;2.136;2023-03-03T20:31:05;35.70;;;20.90;;
61085;SDS011;46967;48.876;2.136;2023-03-03T20:39:03;39.00;;;21.73;;
61085;SDS011;46967;48.876;2.136;2023-03-03T20:50:10;35.70;;;20.45;;
61085;SDS011;46967;48.876;2.136;2023-03-03T20:55:48;33.15;;;19.65;;
61085;SDS011;46967;48.876;2.136;2023-03-03T20:58:41;35.25;;;19.67;;
61085;SDS011;46967;48.876;2.136;2023-03-03T21:01:21;33.22;;;18.73;;
61085;SDS011;46967;48.876;2.136;2023-03-03T21:03:51;35.60;;;19.55;;
61085;SDS011;46967;48.876;2.136;2023-03-03T21:06:17;33.42;;;19.55;;
61085;SDS011;46967;48.876;2.136;2023-03-03T21:13:55;35.95;;;19.00;;
61085;SDS011;46967;48.876;2.136;2023-03-03T21:19:05;36.60;;;20.23;;
61085;SDS011;46967;48.876;2.136;2023-03-03T21:21:43;41.88;;;19.73;;
61085;SDS011;46967;48.876;2.136;2023-03-03T21:24:12;37.13;;;20.98;;
61085;SDS011;46967;48.876;2.136;2023-03-03T21:31:48;39.40;;;21.25;;
61085;SDS011;46967;48.876;2.136;2023-03-03T21:34:18;35.42;;;19.05;;
61085;SDS011;46967;48.876;2.136;2023-03-03T21:36:51;36.20;;;19.40;;
61085;SDS011;46967;48.876;2.136;2023-03-03T21:44:29;36.55;;;19.05;;
61085;SDS011;46967;48.876;2.136;2023-03-03T21:46:58;36.33;;;19.65;;
61085;SDS011;46967;48.876;2.136;2023-03-03T21:49:24;33.75;;;20.00;;
61085;SDS011;46967;48.876;2.136;2023-03-03T21:51:49;36.47;;;20.10;;
61085;SDS011;46967;48.876;2.136;2023-03-03T21:54:14;38.22;;;20.67;;
61085;SDS011;46967;48.876;2.136;2023-03-03T21:56:40;39.20;;;20.08;;
61085;SDS011;46967;48.876;2.136;2023-03-03T21:59:06;35.53;;;19.08;;
61085;SDS011;46967;48.876;2.136;2023-03-03T22:01:32;34.67;;;19.60;;
61085;SDS011;46967;48.876;2.136;2023-03-03T22:03:57;36.42;;;19.80;;
61085;SDS011;46967;48.876;2.136;2023-03-03T22:06:23;36.33;;;19.17;;
61085;SDS011;46967;48.876;2.136;2023-03-03T22:08:48;45.08;;;19.70;;
61085;SDS011;46967;48.876;2.136;2023-03-03T22:11:13;38.00;;;20.42;;
61085;SDS011;46967;48.876;2.136;2023-03-03T22:13:39;38.53;;;19.95;;
61085;SDS011;46967;48.876;2.136;2023-03-03T22:16:05;36.88;;;19.60;;
61085;SDS011;46967;48.876;2.136;2023-03-03T22:18:32;41.80;;;20.95;;
61085;SDS011;46967;48.876;2.136;2023-03-03T22:20:57;35.42;;;19.88;;